sensor_id;sensor_type;location;lat;lon;timestamp;temperature;humidity
8114;DHT22;4099;52.684;9.918;2022-11-18T00:03:20;4.60;99.90
8114;DHT22;4099;52.684;9.918;2022-11-18T00:08:28;4.60;99.90
8114;DHT22;4099;52.684;9.918;2022-11-18T00:13:32;4.60;99.90
8114;DHT22;4099;52.684;9.918;2022-11-18T00:18:52;4.60;99.90
8114;DHT22;4099;52.684;9.918;2022-11-18T00:23:56;4.60;99.90
8114;DHT22;4099;52.684;9.918;2022-11-18T00:29:00;4.60;99.90
8114;DHT22;4099;52.684;9.918;2022-11-18T00:34:04;4.60;99.90
8114;DHT22;4099;52.684;9.918;2022-11-18T00:39:13;4.60;99.90
8114;DHT22;4099;52.684;9.918;2022-11-18T00:44:17;4.50;99.90
8114;DHT22;4099;52.684;9.918;2022-11-18T00:49:23;4.40;99.90
8114;DHT22;4099;52.684;9.918;2022-11-18T00:54:28;4.40;99.90
8114;DHT22;4099;52.684;9.918;2022-11-18T00:59:36;4.50;99.90
8114;DHT22;4099;52.684;9.918;2022-11-18T01:04:39;4.40;99.90
8114;DHT22;4099;52.684;9.918;2022-11-18T01:09:45;4.40;99.90
8114;DHT22;4099;52.684;9.918;2022-11-18T01:14:51;4.40;99.90
8114;DHT22;4099;52.684;9.918;2022-11-18T01:19:56;4.40;99.90
8114;DHT22;4099;52.684;9.918;2022-11-18T01:25:02;4.30;99.90
8114;DHT22;4099;52.684;9.918;2022-11-18T01:30:15;4.30;99.90
8114;DHT22;4099;52.684;9.918;2022-11-18T01:35:21;4.40;99.90
8114;DHT22;4099;52.684;9.918;2022-11-18T01:40:28;4.30;99.90
8114;DHT22;4099;52.684;9.918;2022-11-18T01:45:37;4.30;99.90
8114;DHT22;4099;52.684;9.918;2022-11-18T01:50:43;4.30;99.90
8114;DHT22;4099;52.684;9.918;2022-11-18T01:55:52;4.30;99.90
8114;DHT22;4099;52.684;9.918;2022-11-18T02:00:56;4.30;99.90
8114;DHT22;4099;52.684;9.918;2022-11-18T02:06:02;4.30;99.90
8114;DHT22;4099;52.684;9.918;2022-11-18T02:11:10;4.30;99.90
8114;DHT22;4099;52.684;9.918;2022-11-18T02:16:49;4.20;99.90
8114;DHT22;4099;52.684;9.918;2022-11-18T02:21:59;4.20;99.90
8114;DHT22;4099;52.684;9.918;2022-11-18T02:33:05;4.10;99.90
8114;DHT22;4099;52.684;9.918;2022-11-18T02:38:12;4.10;99.90
8114;DHT22;4099;52.684;9.918;2022-11-18T02:43:18;4.10;99.90
8114;DHT22;4099;52.684;9.918;2022-11-18T02:48:27;4.10;99.90
8114;DHT22;4099;52.684;9.918;2022-11-18T02:53:33;4.00;99.90
8114;DHT22;4099;52.684;9.918;2022-11-18T02:58:37;4.00;99.90
8114;DHT22;4099;52.684;9.918;2022-11-18T03:03:43;3.90;99.90
8114;DHT22;4099;52.684;9.918;2022-11-18T03:08:51;4.00;99.90
8114;DHT22;4099;52.684;9.918;2022-11-18T03:14:07;3.80;99.90
8114;DHT22;4099;52.684;9.918;2022-11-18T03:19:18;3.90;99.90
8114;DHT22;4099;52.684;9.918;2022-11-18T03:24:28;4.00;99.90
8114;DHT22;4099;52.684;9.918;2022-11-18T03:29:37;3.80;99.90
8114;DHT22;4099;52.684;9.918;2022-11-18T03:34:44;3.90;99.90
8114;DHT22;4099;52.684;9.918;2022-11-18T03:39:52;3.80;99.90
8114;DHT22;4099;52.684;9.918;2022-11-18T03:45:00;3.80;99.90
8114;DHT22;4099;52.684;9.918;2022-11-18T03:50:13;3.70;99.90
8114;DHT22;4099;52.684;9.918;2022-11-18T03:55:20;3.70;99.90
8114;DHT22;4099;52.684;9.918;2022-11-18T04:00:31;3.60;99.90
8114;DHT22;4099;52.684;9.918;2022-11-18T04:05:39;3.60;99.90
8114;DHT22;4099;52.684;9.918;2022-11-18T04:10:48;3.60;99.90
8114;DHT22;4099;52.684;9.918;2022-11-18T04:15:53;3.60;99.90
8114;DHT22;4099;52.684;9.918;2022-11-18T04:21:00;3.70;99.90
8114;DHT22;4099;52.684;9.918;2022-11-18T04:26:06;3.60;99.90
8114;DHT22;4099;52.684;9.918;2022-11-18T04:31:12;3.60;99.90
8114;DHT22;4099;52.684;9.918;2022-11-18T04:36:16;3.60;99.90
8114;DHT22;4099;52.684;9.918;2022-11-18T04:41:20;3.70;99.90
8114;DHT22;4099;52.684;9.918;2022-11-18T04:46:46;3.60;99.90
8114;DHT22;4099;52.684;9.918;2022-11-18T04:51:52;3.50;99.90
8114;DHT22;4099;52.684;9.918;2022-11-18T04:56:56;3.40;99.90
8114;DHT22;4099;52.684;9.918;2022-11-18T05:02:02;3.40;99.90
8114;DHT22;4099;52.684;9.918;2022-11-18T05:07:06;3.30;99.90
8114;DHT22;4099;52.684;9.918;2022-11-18T05:12:17;3.20;99.90
8114;DHT22;4099;52.684;9.918;2022-11-18T05:17:43;3.30;99.90
8114;DHT22;4099;52.684;9.918;2022-11-18T05:22:51;3.20;99.90
8114;DHT22;4099;52.684;9.918;2022-11-18T05:27:54;3.10;99.90
8114;DHT22;4099;52.684;9.918;2022-11-18T05:32:58;3.20;99.90
8114;DHT22;4099;52.684;9.918;2022-11-18T05:38:08;3.10;99.90
8114;DHT22;4099;52.684;9.918;2022-11-18T05:43:12;3.10;99.90
8114;DHT22;4099;52.684;9.918;2022-11-18T05:48:17;3.10;99.90
8114;DHT22;4099;52.684;9.918;2022-11-18T05:53:23;3.10;99.90
8114;DHT22;4099;52.684;9.918;2022-11-18T05:58:26;3.00;99.90
8114;DHT22;4099;52.684;9.918;2022-11-18T06:03:34;3.00;99.90
8114;DHT22;4099;52.684;9.918;2022-11-18T06:08:46;2.90;99.90
8114;DHT22;4099;52.684;9.918;2022-11-18T06:13:58;2.90;99.90
8114;DHT22;4099;52.684;9.918;2022-11-18T06:19:03;2.80;99.90
8114;DHT22;4099;52.684;9.918;2022-11-18T06:24:13;2.90;99.90
8114;DHT22;4099;52.684;9.918;2022-11-18T06:29:18;2.80;99.90
8114;DHT22;4099;52.684;9.918;2022-11-18T06:34:24;2.80;99.90
8114;DHT22;4099;52.684;9.918;2022-11-18T06:39:29;2.90;99.90
8114;DHT22;4099;52.684;9.918;2022-11-18T06:44:33;2.90;99.90
8114;DHT22;4099;52.684;9.918;2022-11-18T06:49:40;2.70;99.90
8114;DHT22;4099;52.684;9.918;2022-11-18T06:54:48;2.80;99.90
8114;DHT22;4099;52.684;9.918;2022-11-18T06:59:58;2.80;99.90
8114;DHT22;4099;52.684;9.918;2022-11-18T07:05:05;2.60;99.90
8114;DHT22;4099;52.684;9.918;2022-11-18T07:10:11;2.50;99.90
8114;DHT22;4099;52.684;9.918;2022-11-18T07:15:17;2.60;99.90
8114;DHT22;4099;52.684;9.918;2022-11-18T07:20:20;2.60;99.90
8114;DHT22;4099;52.684;9.918;2022-11-18T07:25:28;2.60;99.90
8114;DHT22;4099;52.684;9.918;2022-11-18T07:30:37;2.60;99.90
8114;DHT22;4099;52.684;9.918;2022-11-18T07:35:52;2.60;99.90
8114;DHT22;4099;52.684;9.918;2022-11-18T07:41:05;2.60;99.90
8114;DHT22;4099;52.684;9.918;2022-11-18T07:46:18;2.60;99.90
8114;DHT22;4099;52.684;9.918;2022-11-18T07:51:23;2.60;99.90
8114;DHT22;4099;52.684;9.918;2022-11-18T07:56:28;2.40;99.90
8114;DHT22;4099;52.684;9.918;2022-11-18T08:01:31;2.50;99.90
8114;DHT22;4099;52.684;9.918;2022-11-18T08:06:38;2.50;99.90
8114;DHT22;4099;52.684;9.918;2022-11-18T08:11:49;2.50;99.90
8114;DHT22;4099;52.684;9.918;2022-11-18T08:16:53;2.60;99.90
8114;DHT22;4099;52.684;9.918;2022-11-18T08:22:02;2.60;99.90
8114;DHT22;4099;52.684;9.918;2022-11-18T08:27:10;2.40;99.90
8114;DHT22;4099;52.684;9.918;2022-11-18T08:32:24;2.40;99.90
8114;DHT22;4099;52.684;9.918;2022-11-18T08:37:29;2.30;99.90
8114;DHT22;4099;52.684;9.918;2022-11-18T08:42:40;2.30;99.90
8114;DHT22;4099;52.684;9.918;2022-11-18T08:47:53;2.30;99.90
8114;DHT22;4099;52.684;9.918;2022-11-18T08:53:06;2.20;99.90
8114;DHT22;4099;52.684;9.918;2022-11-18T08:58:19;2.10;99.90
8114;DHT22;4099;52.684;9.918;2022-11-18T09:03:25;2.10;99.90
8114;DHT22;4099;52.684;9.918;2022-11-18T09:08:29;2.10;99.90
8114;DHT22;4099;52.684;9.918;2022-11-18T09:13:35;2.00;99.90
8114;DHT22;4099;52.684;9.918;2022-11-18T09:18:46;2.00;99.90
8114;DHT22;4099;52.684;9.918;2022-11-18T09:23:53;2.00;99.90
8114;DHT22;4099;52.684;9.918;2022-11-18T09:29:01;2.20;99.90
8114;DHT22;4099;52.684;9.918;2022-11-18T09:34:09;2.10;99.90
8114;DHT22;4099;52.684;9.918;2022-11-18T09:39:12;2.10;99.90
8114;DHT22;4099;52.684;9.918;2022-11-18T09:44:39;2.20;99.90
8114;DHT22;4099;52.684;9.918;2022-11-18T09:49:47;2.30;99.90
8114;DHT22;4099;52.684;9.918;2022-11-18T09:54:51;2.30;99.90
8114;DHT22;4099;52.684;9.918;2022-11-18T09:59:57;2.30;99.90
8114;DHT22;4099;52.684;9.918;2022-11-18T10:05:19;2.30;99.90
8114;DHT22;4099;52.684;9.918;2022-11-18T10:10:47;2.10;99.90
8114;DHT22;4099;52.684;9.918;2022-11-18T10:16:18;2.10;99.90
8114;DHT22;4099;52.684;9.918;2022-11-18T10:21:43;2.10;99.90
8114;DHT22;4099;52.684;9.918;2022-11-18T10:26:59;2.20;99.90
8114;DHT22;4099;52.684;9.918;2022-11-18T10:32:16;2.10;99.90
8114;DHT22;4099;52.684;9.918;2022-11-18T10:37:25;2.00;99.90
8114;DHT22;4099;52.684;9.918;2022-11-18T10:42:36;2.00;99.90
8114;DHT22;4099;52.684;9.918;2022-11-18T10:48:01;2.00;99.90
8114;DHT22;4099;52.684;9.918;2022-11-18T10:53:28;2.00;99.90
8114;DHT22;4099;52.684;9.918;2022-11-18T10:58:34;2.00;99.90
8114;DHT22;4099;52.684;9.918;2022-11-18T11:03:53;2.00;99.90
8114;DHT22;4099;52.684;9.918;2022-11-18T11:09:04;2.10;99.90
8114;DHT22;4099;52.684;9.918;2022-11-18T11:14:21;2.30;99.90
8114;DHT22;4099;52.684;9.918;2022-11-18T11:19:44;2.30;99.90
8114;DHT22;4099;52.684;9.918;2022-11-18T11:24:50;2.20;99.90
8114;DHT22;4099;52.684;9.918;2022-11-18T11:30:21;2.10;99.90
8114;DHT22;4099;52.684;9.918;2022-11-18T11:35:49;2.20;99.90
8114;DHT22;4099;52.684;9.918;2022-11-18T11:41:03;2.10;99.90
8114;DHT22;4099;52.684;9.918;2022-11-18T11:46:24;2.10;99.90
8114;DHT22;4099;52.684;9.918;2022-11-18T11:51:41;2.30;99.90
8114;DHT22;4099;52.684;9.918;2022-11-18T11:56:54;2.10;99.90
8114;DHT22;4099;52.684;9.918;2022-11-18T12:07:50;2.40;99.90
8114;DHT22;4099;52.684;9.918;2022-11-18T12:13:04;2.50;99.90
8114;DHT22;4099;52.684;9.918;2022-11-18T12:18:18;2.40;99.90
8114;DHT22;4099;52.684;9.918;2022-11-18T12:23:33;2.20;99.90
8114;DHT22;4099;52.684;9.918;2022-11-18T12:28:46;2.20;99.90
8114;DHT22;4099;52.684;9.918;2022-11-18T12:33:54;2.10;99.90
8114;DHT22;4099;52.684;9.918;2022-11-18T12:44:46;2.10;99.90
8114;DHT22;4099;52.684;9.918;2022-11-18T12:50:10;2.20;99.90
8114;DHT22;4099;52.684;9.918;2022-11-18T12:55:35;2.20;99.90
8114;DHT22;4099;52.684;9.918;2022-11-18T13:00:42;2.10;99.90
8114;DHT22;4099;52.684;9.918;2022-11-18T13:06:20;2.00;99.90
8114;DHT22;4099;52.684;9.918;2022-11-18T13:11:49;1.90;99.90
8114;DHT22;4099;52.684;9.918;2022-11-18T13:17:00;2.10;99.90
8114;DHT22;4099;52.684;9.918;2022-11-18T13:22:25;2.10;99.90
8114;DHT22;4099;52.684;9.918;2022-11-18T13:27:50;2.00;99.90
8114;DHT22;4099;52.684;9.918;2022-11-18T13:33:02;2.00;99.90
8114;DHT22;4099;52.684;9.918;2022-11-18T13:38:18;1.80;99.90
8114;DHT22;4099;52.684;9.918;2022-11-18T13:43:31;1.70;99.90
8114;DHT22;4099;52.684;9.918;2022-11-18T13:48:47;1.80;99.90
8114;DHT22;4099;52.684;9.918;2022-11-18T13:53:57;1.60;99.90
8114;DHT22;4099;52.684;9.918;2022-11-18T13:59:17;1.60;99.90
8114;DHT22;4099;52.684;9.918;2022-11-18T14:04:24;1.50;99.90
8114;DHT22;4099;52.684;9.918;2022-11-18T14:09:33;1.70;99.90
8114;DHT22;4099;52.684;9.918;2022-11-18T14:14:47;1.60;99.90
8114;DHT22;4099;52.684;9.918;2022-11-18T14:25:27;1.50;99.90
8114;DHT22;4099;52.684;9.918;2022-11-18T14:30:37;1.50;99.90
8114;DHT22;4099;52.684;9.918;2022-11-18T14:35:57;1.40;99.90
8114;DHT22;4099;52.684;9.918;2022-11-18T14:41:06;1.30;99.90
8114;DHT22;4099;52.684;9.918;2022-11-18T14:46:22;1.20;99.90
8114;DHT22;4099;52.684;9.918;2022-11-18T14:51:26;1.30;99.90
8114;DHT22;4099;52.684;9.918;2022-11-18T14:56:34;1.10;99.90
8114;DHT22;4099;52.684;9.918;2022-11-18T15:01:45;1.20;99.90
8114;DHT22;4099;52.684;9.918;2022-11-18T15:06:56;1.10;99.90
8114;DHT22;4099;52.684;9.918;2022-11-18T15:12:02;1.10;99.90
8114;DHT22;4099;52.684;9.918;2022-11-18T15:17:10;1.10;99.90
8114;DHT22;4099;52.684;9.918;2022-11-18T15:22:26;1.10;99.90
8114;DHT22;4099;52.684;9.918;2022-11-18T15:27:32;1.10;99.90
8114;DHT22;4099;52.684;9.918;2022-11-18T15:32:37;1.00;99.90
8114;DHT22;4099;52.684;9.918;2022-11-18T15:37:43;1.10;99.90
8114;DHT22;4099;52.684;9.918;2022-11-18T15:42:46;1.10;99.90
8114;DHT22;4099;52.684;9.918;2022-11-18T15:47:53;1.00;99.90
8114;DHT22;4099;52.684;9.918;2022-11-18T15:52:57;1.00;99.90
8114;DHT22;4099;52.684;9.918;2022-11-18T15:58:02;0.90;99.90
8114;DHT22;4099;52.684;9.918;2022-11-18T16:03:06;1.00;99.90
8114;DHT22;4099;52.684;9.918;2022-11-18T16:08:18;1.00;99.90
8114;DHT22;4099;52.684;9.918;2022-11-18T16:13:20;0.90;99.90
8114;DHT22;4099;52.684;9.918;2022-11-18T16:18:26;0.90;99.90
8114;DHT22;4099;52.684;9.918;2022-11-18T16:23:32;0.90;99.90
8114;DHT22;4099;52.684;9.918;2022-11-18T16:28:34;0.90;99.90
8114;DHT22;4099;52.684;9.918;2022-11-18T16:33:38;0.80;99.90
8114;DHT22;4099;52.684;9.918;2022-11-18T16:38:43;0.80;99.90
8114;DHT22;4099;52.684;9.918;2022-11-18T16:43:49;0.80;99.90
8114;DHT22;4099;52.684;9.918;2022-11-18T16:48:57;0.90;99.90
8114;DHT22;4099;52.684;9.918;2022-11-18T16:54:02;0.90;99.90
8114;DHT22;4099;52.684;9.918;2022-11-18T16:59:12;0.80;99.90
8114;DHT22;4099;52.684;9.918;2022-11-18T17:04:18;0.80;99.90
8114;DHT22;4099;52.684;9.918;2022-11-18T17:09:23;0.80;99.90
8114;DHT22;4099;52.684;9.918;2022-11-18T17:14:28;0.80;99.90
8114;DHT22;4099;52.684;9.918;2022-11-18T17:19:33;0.90;99.90
8114;DHT22;4099;52.684;9.918;2022-11-18T17:24:37;0.80;99.90
8114;DHT22;4099;52.684;9.918;2022-11-18T17:29:42;0.80;99.90
8114;DHT22;4099;52.684;9.918;2022-11-18T17:34:46;0.70;99.90
8114;DHT22;4099;52.684;9.918;2022-11-18T17:39:49;0.60;99.90
8114;DHT22;4099;52.684;9.918;2022-11-18T17:44:51;0.60;99.90
8114;DHT22;4099;52.684;9.918;2022-11-18T17:49:57;0.60;99.90
8114;DHT22;4099;52.684;9.918;2022-11-18T17:55:02;0.60;99.90
8114;DHT22;4099;52.684;9.918;2022-11-18T18:00:09;0.70;99.90
8114;DHT22;4099;52.684;9.918;2022-11-18T18:05:16;0.70;99.90
8114;DHT22;4099;52.684;9.918;2022-11-18T18:10:19;0.60;99.90
8114;DHT22;4099;52.684;9.918;2022-11-18T18:15:22;0.60;99.90
8114;DHT22;4099;52.684;9.918;2022-11-18T18:20:32;0.60;99.90
8114;DHT22;4099;52.684;9.918;2022-11-18T18:25:35;0.40;99.90
8114;DHT22;4099;52.684;9.918;2022-11-18T18:30:37;0.40;99.90
8114;DHT22;4099;52.684;9.918;2022-11-18T18:35:41;0.50;99.90
8114;DHT22;4099;52.684;9.918;2022-11-18T18:40:44;0.30;99.90
8114;DHT22;4099;52.684;9.918;2022-11-18T18:45:47;0.30;99.90
8114;DHT22;4099;52.684;9.918;2022-11-18T18:51:14;0.20;99.90
8114;DHT22;4099;52.684;9.918;2022-11-18T18:56:19;0.20;99.90
8114;DHT22;4099;52.684;9.918;2022-11-18T19:01:23;0.10;99.90
8114;DHT22;4099;52.684;9.918;2022-11-18T19:06:30;0.20;99.90
8114;DHT22;4099;52.684;9.918;2022-11-18T19:11:34;0.00;99.90
8114;DHT22;4099;52.684;9.918;2022-11-18T19:16:51;-0.10;99.90
8114;DHT22;4099;52.684;9.918;2022-11-18T19:21:55;-0.30;99.90
8114;DHT22;4099;52.684;9.918;2022-11-18T19:26:59;-0.40;99.90
8114;DHT22;4099;52.684;9.918;2022-11-18T19:32:02;-0.50;99.90
8114;DHT22;4099;52.684;9.918;2022-11-18T19:37:09;-0.50;99.90
8114;DHT22;4099;52.684;9.918;2022-11-18T19:42:12;-0.70;99.90
8114;DHT22;4099;52.684;9.918;2022-11-18T19:47:15;-0.90;99.90
8114;DHT22;4099;52.684;9.918;2022-11-18T19:52:24;-0.90;99.90
8114;DHT22;4099;52.684;9.918;2022-11-18T19:57:33;-0.90;99.90
8114;DHT22;4099;52.684;9.918;2022-11-18T20:02:40;-0.80;99.90
8114;DHT22;4099;52.684;9.918;2022-11-18T20:07:48;-0.90;99.90
8114;DHT22;4099;52.684;9.918;2022-11-18T20:12:53;-0.90;99.90
8114;DHT22;4099;52.684;9.918;2022-11-18T20:17:57;-1.00;99.90
8114;DHT22;4099;52.684;9.918;2022-11-18T20:23:04;-1.10;99.90
8114;DHT22;4099;52.684;9.918;2022-11-18T20:28:09;-1.10;99.90
8114;DHT22;4099;52.684;9.918;2022-11-18T20:33:15;-1.00;99.90
8114;DHT22;4099;52.684;9.918;2022-11-18T20:38:27;-1.00;99.90
8114;DHT22;4099;52.684;9.918;2022-11-18T20:43:32;-0.90;99.90
8114;DHT22;4099;52.684;9.918;2022-11-18T20:48:43;-0.90;99.90
8114;DHT22;4099;52.684;9.918;2022-11-18T20:53:50;-0.90;99.90
8114;DHT22;4099;52.684;9.918;2022-11-18T20:58:58;-1.00;99.90
8114;DHT22;4099;52.684;9.918;2022-11-18T21:04:02;-1.00;99.90
8114;DHT22;4099;52.684;9.918;2022-11-18T21:09:08;-1.00;99.90
8114;DHT22;4099;52.684;9.918;2022-11-18T21:14:16;-1.00;99.90
8114;DHT22;4099;52.684;9.918;2022-11-18T21:19:48;-1.20;99.90
8114;DHT22;4099;52.684;9.918;2022-11-18T21:24:54;-1.00;99.90
8114;DHT22;4099;52.684;9.918;2022-11-18T21:30:03;-1.00;83.90
8114;DHT22;4099;52.684;9.918;2022-11-18T21:35:18;-1.00;99.90
8114;DHT22;4099;52.684;9.918;2022-11-18T21:40:25;-0.90;92.90
8114;DHT22;4099;52.684;9.918;2022-11-18T21:45:28;-1.00;99.90
8114;DHT22;4099;52.684;9.918;2022-11-18T21:50:32;-1.00;60.40
8114;DHT22;4099;52.684;9.918;2022-11-18T21:55:42;-1.20;99.90
8114;DHT22;4099;52.684;9.918;2022-11-18T22:00:47;-1.20;87.20
8114;DHT22;4099;52.684;9.918;2022-11-18T22:05:56;-1.20;95.00
8114;DHT22;4099;52.684;9.918;2022-11-18T22:11:03;-1.40;61.50
8114;DHT22;4099;52.684;9.918;2022-11-18T22:16:11;-1.50;88.70
8114;DHT22;4099;52.684;9.918;2022-11-18T22:21:26;-1.60;99.90
8114;DHT22;4099;52.684;9.918;2022-11-18T22:26:31;-1.60;99.90
8114;DHT22;4099;52.684;9.918;2022-11-18T22:31:34;-1.80;99.90
8114;DHT22;4099;52.684;9.918;2022-11-18T22:36:37;-1.90;99.90
8114;DHT22;4099;52.684;9.918;2022-11-18T22:41:43;-2.10;99.90
8114;DHT22;4099;52.684;9.918;2022-11-18T22:47:04;-2.10;99.90
8114;DHT22;4099;52.684;9.918;2022-11-18T22:52:07;-1.90;99.90
8114;DHT22;4099;52.684;9.918;2022-11-18T22:57:15;-2.20;99.90
8114;DHT22;4099;52.684;9.918;2022-11-18T23:02:21;-2.40;99.90
8114;DHT22;4099;52.684;9.918;2022-11-18T23:07:30;-2.50;99.90
8114;DHT22;4099;52.684;9.918;2022-11-18T23:12:35;-2.70;99.90
8114;DHT22;4099;52.684;9.918;2022-11-18T23:17:57;-2.60;99.90
8114;DHT22;4099;52.684;9.918;2022-11-18T23:23:04;-2.60;99.90
8114;DHT22;4099;52.684;9.918;2022-11-18T23:28:11;-2.50;99.90
8114;DHT22;4099;52.684;9.918;2022-11-18T23:33:17;-2.50;99.90
8114;DHT22;4099;52.684;9.918;2022-11-18T23:38:20;-2.80;99.90
8114;DHT22;4099;52.684;9.918;2022-11-18T23:43:30;-2.60;99.90
8114;DHT22;4099;52.684;9.918;2022-11-18T23:48:40;-2.80;99.90
8114;DHT22;4099;52.684;9.918;2022-11-18T23:53:49;-2.80;99.90
8114;DHT22;4099;52.684;9.918;2022-11-18T23:58:59;-2.90;99.90
